createdAt,value
2023-03-17T00:02:31.953Z,94783.00
2023-03-17T00:06:31.983Z,94781.00
2023-03-17T00:10:32.854Z,94779.00
2023-03-17T00:14:31.924Z,94777.00
2023-03-17T00:18:31.980Z,94771.00
2023-03-17T00:22:32.027Z,94763.00
2023-03-17T00:26:32.044Z,94755.00
2023-03-17T00:30:32.476Z,94755.00
2023-03-17T00:34:32.201Z,94749.00
2023-03-17T00:38:32.166Z,94745.00
2023-03-17T00:42:32.217Z,94735.00
2023-03-17T00:46:32.368Z,94739.00
2023-03-17T00:50:32.789Z,94739.00
2023-03-17T00:54:32.465Z,94732.00
2023-03-17T00:58:32.470Z,94730.00
2023-03-17T01:02:32.591Z,94732.00
2023-03-17T01:06:32.658Z,94739.00
2023-03-17T01:10:32.815Z,94737.00
2023-03-17T01:14:32.868Z,94733.00
2023-03-17T01:18:33.150Z,94733.00
2023-03-17T01:22:33.272Z,94726.00
2023-03-17T01:26:33.186Z,94722.00
2023-03-17T01:30:33.370Z,94720.00
2023-03-17T01:34:33.441Z,94722.00
2023-03-17T01:38:33.905Z,94718.00
2023-03-17T01:42:33.587Z,94722.00
2023-03-17T01:46:33.828Z,94710.00
2023-03-17T01:50:33.797Z,94708.00
2023-03-17T01:54:33.910Z,94710.00
2023-03-17T01:58:34.097Z,94708.00
2023-03-17T02:02:34.274Z,94706.00
2023-03-17T02:06:35.833Z,94702.00
2023-03-17T02:10:34.308Z,94704.00
2023-03-17T02:14:34.280Z,94704.00
2023-03-17T02:18:34.314Z,94702.00
2023-03-17T02:22:34.131Z,94700.00
2023-03-17T02:26:34.102Z,94698.00
2023-03-17T02:30:34.111Z,94702.00
2023-03-17T02:34:34.126Z,94700.00
2023-03-17T02:38:34.098Z,94700.00
2023-03-17T02:42:34.097Z,94698.00
2023-03-17T02:46:33.970Z,94700.00
2023-03-17T02:50:34.381Z,94702.00
2023-03-17T02:54:33.815Z,94704.00
2023-03-17T02:58:33.902Z,94704.00
2023-03-17T03:02:33.940Z,94704.00
2023-03-17T03:06:33.988Z,94700.00
2023-03-17T03:10:34.072Z,94696.00
2023-03-17T03:14:34.192Z,94696.00
2023-03-17T03:18:34.343Z,94696.00
2023-03-17T03:22:34.501Z,94696.00
2023-03-17T03:26:34.666Z,94694.00
2023-03-17T03:30:34.797Z,94692.00
2023-03-17T03:34:35.003Z,94692.00
2023-03-17T03:38:35.099Z,94692.00
2023-03-17T03:42:35.293Z,94694.00
2023-03-17T03:46:35.490Z,94702.00
2023-03-17T03:50:35.612Z,94696.00
2023-03-17T03:54:35.750Z,94702.00
2023-03-17T03:58:35.900Z,94704.00
2023-03-17T04:02:36.097Z,94700.00
2023-03-17T04:06:36.240Z,94704.00
2023-03-17T04:10:36.430Z,94700.00
2023-03-17T04:14:36.636Z,94702.00
2023-03-17T04:18:36.816Z,94696.00
2023-03-17T04:22:36.879Z,94688.00
2023-03-17T04:26:36.977Z,94677.00
2023-03-17T04:30:36.960Z,94669.00
2023-03-17T04:34:37.106Z,94673.00
2023-03-17T04:38:37.114Z,94677.00
2023-03-17T04:42:37.082Z,94661.00
2023-03-17T04:46:37.355Z,94661.00
2023-03-17T04:50:37.025Z,94669.00
2023-03-17T04:54:36.954Z,94669.00
2023-03-17T04:58:36.963Z,94663.00
2023-03-17T05:02:36.929Z,94661.00
2023-03-17T05:06:36.813Z,94667.00
2023-03-17T05:10:36.887Z,94657.00
2023-03-17T05:14:36.760Z,94655.00
2023-03-17T05:18:36.829Z,94651.00
2023-03-17T05:22:36.754Z,94653.00
2023-03-17T05:26:36.921Z,94649.00
2023-03-17T05:30:36.803Z,94651.00
2023-03-17T05:34:36.917Z,94657.00
2023-03-17T05:38:37.107Z,94663.00
2023-03-17T05:42:37.177Z,94661.00
2023-03-17T05:46:37.411Z,94663.00
2023-03-17T05:50:37.470Z,94659.00
2023-03-17T05:54:37.546Z,94657.00
2023-03-17T05:58:38.383Z,94659.00
2023-03-17T06:02:38.010Z,94655.00
2023-03-17T06:06:37.934Z,94651.00
2023-03-17T06:10:38.045Z,94655.00
2023-03-17T06:14:38.192Z,94657.00
2023-03-17T06:18:38.302Z,94659.00
2023-03-17T06:22:42.352Z,94663.00
2023-03-17T06:26:41.577Z,94657.00
2023-03-17T06:34:57.126Z,94651.00
2023-03-17T06:39:00.310Z,94649.00
2023-03-17T06:42:57.049Z,94649.00
2023-03-17T06:46:57.400Z,94643.00
2023-03-17T06:50:57.506Z,94647.00
2023-03-17T06:54:57.245Z,94647.00
2023-03-17T06:58:56.997Z,94651.00
2023-03-17T07:02:57.440Z,94649.00
2023-03-17T07:06:57.372Z,94645.00
2023-03-17T07:10:56.832Z,94639.00
2023-03-17T07:14:57.033Z,94647.00
2023-03-17T07:18:57.903Z,94645.00
2023-03-17T07:22:57.124Z,94645.00
2023-03-17T07:26:56.727Z,94643.00
2023-03-17T07:30:56.909Z,94645.00
2023-03-17T07:34:56.686Z,94647.00
2023-03-17T07:38:57.537Z,94647.00
2023-03-17T07:42:56.513Z,94635.00
2023-03-17T07:46:56.520Z,94633.00
2023-03-17T07:50:56.560Z,94633.00
2023-03-17T07:54:56.655Z,94637.00
2023-03-17T07:58:56.716Z,94635.00
2023-03-17T08:03:09.318Z,94624.00
2023-03-17T08:06:57.904Z,94620.00
2023-03-17T08:10:56.753Z,94610.00
2023-03-17T08:14:56.818Z,94604.00
2023-03-17T08:18:56.880Z,94604.00
2023-03-17T08:22:56.793Z,94602.00
2023-03-17T08:26:58.106Z,94604.00
2023-03-17T08:30:56.919Z,94598.00
2023-03-17T08:34:56.811Z,94588.00
2023-03-17T08:38:56.826Z,94579.00
2023-03-17T08:42:56.823Z,94575.00
2023-03-17T08:46:56.809Z,94571.00
2023-03-17T08:50:56.885Z,94563.00
2023-03-17T08:54:56.731Z,94555.00
2023-03-17T08:58:57.406Z,94551.00
2023-03-17T09:02:56.685Z,94543.00
2023-03-17T09:07:03.657Z,94533.00
2023-03-17T09:10:57.630Z,94526.00
2023-03-17T09:14:57.108Z,94518.00
2023-03-17T09:18:56.826Z,94512.00
2023-03-17T09:22:57.236Z,94504.00
2023-03-17T09:26:57.385Z,94500.00
2023-03-17T09:30:57.518Z,94496.00
2023-03-17T09:34:57.897Z,94496.00
2023-03-17T09:38:57.864Z,94496.00
2023-03-17T09:42:57.944Z,94496.00
2023-03-17T09:46:57.807Z,94496.00
2023-03-17T09:50:57.936Z,94486.00
2023-03-17T09:54:58.026Z,94486.00
2023-03-17T09:58:58.140Z,94481.00
2023-03-17T10:02:58.274Z,94471.00
2023-03-17T10:06:58.383Z,94463.00
2023-03-17T10:10:59.789Z,94453.00
2023-03-17T10:14:59.985Z,94449.00
2023-03-17T10:19:00.128Z,94443.00
2023-03-17T10:22:59.186Z,94437.00
2023-03-17T10:26:59.680Z,94430.00
2023-03-17T10:30:59.343Z,94426.00
2023-03-17T10:34:59.576Z,94418.00
2023-03-17T10:38:59.741Z,94412.00
2023-03-17T10:43:00.549Z,94402.00
2023-03-17T10:46:59.632Z,94394.00
2023-03-17T10:50:59.705Z,94386.00
2023-03-17T10:54:59.601Z,94384.00
2023-03-17T10:58:59.512Z,94367.00
2023-03-17T11:02:59.588Z,94365.00
2023-03-17T11:06:59.357Z,94361.00
2023-03-17T11:11:00.398Z,94351.00
2023-03-17T11:14:59.431Z,94341.00
2023-03-17T11:18:59.337Z,94332.00
2023-03-17T11:22:59.293Z,94326.00
2023-03-17T11:26:59.169Z,94322.00
2023-03-17T11:30:59.155Z,94312.00
2023-03-17T11:34:59.470Z,94302.00
2023-03-17T11:38:59.127Z,94296.00
2023-03-17T11:42:59.203Z,94294.00
2023-03-17T11:46:59.568Z,94292.00
2023-03-17T11:50:59.572Z,94285.00
2023-03-17T11:55:00.306Z,94281.00
2023-03-17T11:58:59.816Z,94269.00
2023-03-17T12:03:00.540Z,94269.00
2023-03-17T12:07:00.080Z,94263.00
2023-03-17T12:11:00.931Z,94261.00
2023-03-17T12:15:00.214Z,94257.00
2023-03-17T12:19:00.496Z,94251.00
2023-03-17T12:23:00.512Z,94245.00
2023-03-17T12:27:00.638Z,94237.00
2023-03-17T12:31:00.625Z,94230.00
2023-03-17T12:35:00.556Z,94216.00
2023-03-17T12:39:00.511Z,94216.00
2023-03-17T12:43:00.480Z,94214.00
2023-03-17T12:47:00.449Z,94208.00
2023-03-17T12:51:00.424Z,94208.00
2023-03-17T12:55:00.378Z,94198.00
2023-03-17T12:59:00.308Z,94194.00
2023-03-17T13:03:00.291Z,94190.00
2023-03-17T13:07:00.260Z,94190.00
2023-03-17T13:11:00.234Z,94183.00
2023-03-17T13:15:00.152Z,94173.00
2023-03-17T13:19:00.130Z,94173.00
2023-03-17T13:23:00.192Z,94165.00
2023-03-17T13:27:00.090Z,94163.00
2023-03-17T13:31:00.109Z,94159.00
2023-03-17T13:35:00.007Z,94149.00
2023-03-17T13:39:17.665Z,94143.00
2023-03-17T13:43:00.976Z,94141.00
2023-03-17T13:46:59.939Z,94136.00
2023-03-17T13:50:59.855Z,94130.00
2023-03-17T13:54:59.783Z,94124.00
2023-03-17T13:58:59.859Z,94120.00
2023-03-17T14:02:59.739Z,94120.00
2023-03-17T14:06:59.688Z,94122.00
2023-03-17T14:10:59.658Z,94122.00
2023-03-17T14:14:59.625Z,94118.00
2023-03-17T14:18:59.618Z,94104.00
2023-03-17T14:22:59.629Z,94098.00
2023-03-17T14:26:59.663Z,94092.00
2023-03-17T14:30:59.809Z,94088.00
2023-03-17T14:34:59.806Z,94087.00
2023-03-17T14:38:59.807Z,94085.00
2023-03-17T14:43:00.001Z,94085.00
2023-03-17T14:46:59.927Z,94071.00
2023-03-17T14:51:00.102Z,94075.00
2023-03-17T14:55:00.113Z,94075.00
2023-03-17T14:59:00.360Z,94065.00
2023-03-17T15:03:00.333Z,94065.00
2023-03-17T15:07:00.414Z,94063.00
2023-03-17T15:11:00.474Z,94059.00
2023-03-17T15:15:00.658Z,94063.00
2023-03-17T15:19:00.749Z,94057.00
2023-03-17T15:23:00.899Z,94055.00
2023-03-17T15:27:00.974Z,94053.00
2023-03-17T15:31:01.208Z,94045.00
2023-03-17T15:35:01.626Z,94053.00
2023-03-17T15:39:01.338Z,94047.00
2023-03-17T15:43:01.449Z,94043.00
2023-03-17T15:47:01.628Z,94049.00
2023-03-17T15:51:01.793Z,94051.00
2023-03-17T15:55:01.908Z,94055.00
2023-03-17T15:59:02.207Z,94057.00
2023-03-17T16:03:02.381Z,94059.00
2023-03-17T16:07:02.351Z,94051.00
2023-03-17T16:11:02.314Z,94051.00
2023-03-17T16:15:10.318Z,94049.00
2023-03-17T16:19:03.160Z,94053.00
2023-03-17T16:23:02.305Z,94057.00
2023-03-17T16:27:02.286Z,94065.00
2023-03-17T16:31:02.251Z,94077.00
2023-03-17T16:35:02.134Z,94071.00
2023-03-17T16:39:02.198Z,94065.00
2023-03-17T16:43:02.163Z,94079.00
2023-03-17T16:47:02.182Z,94087.00
2023-03-17T16:51:02.111Z,94096.00
2023-03-17T16:55:01.977Z,94094.00
2023-03-17T16:59:01.959Z,94098.00
2023-03-17T17:03:02.040Z,94106.00
2023-03-17T17:07:01.909Z,94104.00
2023-03-17T17:11:02.077Z,94122.00
2023-03-17T17:15:01.892Z,94122.00
2023-03-17T17:19:01.896Z,94120.00
2023-03-17T17:23:01.896Z,94122.00
2023-03-17T17:27:01.984Z,94126.00
2023-03-17T17:31:01.929Z,94132.00
2023-03-17T17:35:01.848Z,94132.00
2023-03-17T17:39:02.131Z,94132.00
2023-03-17T17:43:01.929Z,94128.00
2023-03-17T17:47:02.036Z,94130.00
2023-03-17T17:51:01.918Z,94139.00
2023-03-17T17:55:01.874Z,94137.00
2023-03-17T17:59:01.865Z,94136.00
2023-03-17T18:03:02.050Z,94141.00
2023-03-17T18:07:02.111Z,94151.00
2023-03-17T18:11:02.045Z,94149.00
2023-03-17T18:15:03.116Z,94143.00
2023-03-17T18:19:02.231Z,94151.00
2023-03-17T18:23:02.290Z,94155.00
2023-03-17T18:27:02.442Z,94153.00
2023-03-17T18:31:02.564Z,94175.00
2023-03-17T18:35:02.729Z,94177.00
2023-03-17T18:39:02.900Z,94179.00
2023-03-17T18:43:03.080Z,94175.00
2023-03-17T18:47:03.197Z,94183.00
2023-03-17T18:51:03.519Z,94184.00
2023-03-17T18:55:03.500Z,94184.00
2023-03-17T18:59:03.450Z,94192.00
2023-03-17T19:03:03.369Z,94190.00
2023-03-17T19:07:03.336Z,94198.00
2023-03-17T19:11:03.386Z,94202.00
2023-03-17T19:15:03.273Z,94206.00
2023-03-17T19:19:03.228Z,94202.00
2023-03-17T19:23:03.129Z,94206.00
2023-03-17T19:27:03.092Z,94194.00
2023-03-17T19:31:03.118Z,94202.00
2023-03-17T19:35:03.028Z,94212.00
2023-03-17T19:39:03.625Z,94210.00
2023-03-17T19:43:03.279Z,94214.00
2023-03-17T19:47:03.238Z,94220.00
2023-03-17T19:51:03.128Z,94224.00
2023-03-17T19:55:03.149Z,94226.00
2023-03-17T19:59:03.062Z,94220.00
2023-03-17T20:03:03.029Z,94226.00
2023-03-17T20:07:03.062Z,94228.00
2023-03-17T20:11:02.990Z,94224.00
2023-03-17T20:15:02.948Z,94224.00
2023-03-17T20:19:03.020Z,94228.00
2023-03-17T20:23:02.945Z,94228.00
2023-03-17T20:27:02.884Z,94232.00
2023-03-17T20:31:03.035Z,94230.00
2023-03-17T20:35:02.930Z,94239.00
2023-03-17T20:39:02.792Z,94234.00
2023-03-17T20:43:02.761Z,94230.00
2023-03-17T20:47:02.748Z,94230.00
2023-03-17T20:51:02.708Z,94232.00
2023-03-17T20:55:02.608Z,94234.00
2023-03-17T20:59:02.680Z,94237.00
2023-03-17T21:03:02.926Z,94247.00
2023-03-17T21:07:03.038Z,94245.00
2023-03-17T21:11:03.278Z,94251.00
2023-03-17T21:15:03.372Z,94247.00
2023-03-17T21:19:03.357Z,94253.00
2023-03-17T21:23:03.312Z,94259.00
2023-03-17T21:27:03.279Z,94265.00
2023-03-17T21:31:03.312Z,94261.00
2023-03-17T21:35:03.251Z,94265.00
2023-03-17T21:39:03.195Z,94263.00
2023-03-17T21:43:03.166Z,94261.00
2023-03-17T21:47:03.131Z,94265.00
2023-03-17T21:51:03.036Z,94273.00
2023-03-17T21:55:03.284Z,94271.00
2023-03-17T21:59:03.212Z,94271.00
2023-03-17T22:03:03.155Z,94277.00
2023-03-17T22:07:03.092Z,94281.00
2023-03-17T22:11:03.094Z,94285.00
2023-03-17T22:15:03.036Z,94287.00
2023-03-17T22:19:03.010Z,94287.00
2023-03-17T22:23:02.989Z,94292.00
2023-03-17T22:27:02.910Z,94294.00
2023-03-17T22:31:02.926Z,94300.00
2023-03-17T22:35:03.053Z,94298.00
2023-03-17T22:39:02.985Z,94296.00
2023-03-17T22:43:02.993Z,94296.00
2023-03-17T22:47:02.950Z,94298.00
2023-03-17T22:51:02.912Z,94298.00
2023-03-17T22:55:02.866Z,94306.00
2023-03-17T22:59:02.869Z,94312.00
2023-03-17T23:03:02.826Z,94318.00
2023-03-17T23:07:02.717Z,94324.00
2023-03-17T23:11:02.712Z,94322.00
2023-03-17T23:15:02.705Z,94324.00
2023-03-17T23:19:02.633Z,94332.00
2023-03-17T23:23:02.774Z,94339.00
2023-03-17T23:27:02.950Z,94341.00
2023-03-17T23:31:03.056Z,94343.00
2023-03-17T23:35:03.209Z,94343.00
2023-03-17T23:39:03.299Z,94336.00
2023-03-17T23:43:03.378Z,94341.00
2023-03-17T23:47:03.417Z,94345.00
2023-03-17T23:51:03.422Z,94351.00
2023-03-17T23:55:04.206Z,94361.00
2023-03-17T23:59:03.462Z,94363.00
